Date,TemperatureHighF,TemperatureAvgF,TemperatureLowF,DewpointHighF,DewpointAvgF,DewpointLowF,HumidityHigh,HumidityAvg,HumidityLow,PressureMaxIn,PressureMinIn,WindSpeedMaxMPH,WindSpeedAvgMPH,GustSpeedMaxMPH,PrecipitationSumIn
2013-1-1,34.3,32.0,32.0,27.8,23.8,19.7,82,71,60,30.06,29.86,16,5,16,0.00
2013-1-2,32.0,32.0,32.0,29.4,27.6,24.0,90,84,72,30.24,30.04,21,5,21,0.00
2013-1-3,32.0,32.0,32.0,29.1,27.2,26.2,89,82,79,30.18,30.09,9,5,9,0.00
2013-1-4,33.2,32.4,32.0,25.6,24.6,23.1,75,72,70,30.03,29.91,29,13,29,0.00
2013-1-5,34.3,33.6,32.1,25.1,25.0,24.7,75,70,68,30.21,30.03,13,1,13,0.00
2013-1-6,38.1,36.1,34.7,32.4,31.6,30.3,89,84,75,30.08,29.89,15,6,15,0.00
2013-1-7,35.4,33.0,32.0,31.8,26.9,22.3,89,78,67,30.42,30.09,12,3,12,0.00
2013-1-8,40.3,35.1,32.1,29.0,26.4,22.4,88,71,58,30.34,30.20,13,2,13,0.00
2013-1-9,41.1,40.6,40.2,32.3,29.5,27.2,71,64,59,30.33,30.11,21,12,21,0.00
2013-1-10,41.7,36.3,32.0,31.7,29.5,27.7,88,77,60,30.56,30.33,18,2,18,0.00
2013-1-11,44.5,42.4,40.1,40.6,38.8,36.8,90,87,86,29.97,29.94,7,3,7,0.00
2013-1-12,57.4,53.8,43.6,49.9,48.0,40.3,88,81,75,30.00,29.95,10,3,10,0.00
2013-1-13,50.8,50.7,50.5,46.8,46.5,45.6,86,86,85,29.98,29.98,4,4,4,0.00
2013-1-14,34.1,32.5,32.1,25.7,23.3,21.7,73,68,64,30.40,30.27,26,5,26,0.00
2013-1-15,34.4,32.3,32.0,26.6,23.5,18.5,80,70,55,30.42,30.21,10,2,10,0.00
2013-1-16,38.7,35.3,32.1,29.9,27.0,23.2,82,72,61,30.21,29.79,17,6,17,0.00
2013-1-17,36.7,36.6,36.6,31.9,28.7,24.8,83,73,62,30.21,29.84,13,3,13,0.00
2013-1-18,36.6,34.3,32.5,29.4,20.8,16.7,75,58,45,30.45,30.06,21,6,21,0.00
2013-1-19,47.7,38.6,32.5,26.3,20.8,16.8,53,49,43,30.06,29.59,26,10,26,0.00
2013-1-20,47.9,32.4,32.0,26.6,21.0,14.6,80,63,42,30.08,29.59,34,15,34,0.01